ドーハ の空港の天気 - METARとTAF

ドーハ国際空港 ( OTBD / DOH ) - カタール ドーハ
飛行場実況気象(Metar)
観測時間11/27 11:30 AST (11/27 08:30 UTC)
風向・風速北西 4m/s
視程10km以上
天気現象
なし
気温31℃
湿度29%
気圧1014hPa
METAROTBD 270830Z 32008KT 290V350 CAVOK 31/11 Q1014 NOSIG
過去の天気等 Google飛行場航空写真 Wunderground天気予報

過去48時間のMETAR

飛行場予報(TAF)
発表時間: 11/27 08:08 AST (11/27 05:08 UTC)
予報対象時間: 27日9時 AST ~ 28日15時 AST
風向・風速北西 5m/s
視程8000m
なし
27日9時 AST ~ 27日12時 AST に一時的に
風向・風速西南西 4m/s
27日10時 AST ~ 27日19時 AST に一時的に
風向・風速北北東 5m/s
TAF OTBD 270508Z 2706/2812 31009KT 8000 NSC
TEMPO 2706/2709 25007KT
TEMPO 2707/2716 02009KT